sensor_id;sensor_type;location;lat;lon;timestamp;pressure;altitude;pressure_sealevel;temperature
12662;BMP180;3200;48.204;11.576;2024-01-15T00:00:33;93775.31;;;-0.68
12662;BMP180;3200;48.204;11.576;2024-01-15T00:02:59;93748.38;;;-0.75
12662;BMP180;3200;48.204;11.576;2024-01-15T00:05:25;93797.59;;;-0.44
12662;BMP180;3200;48.204;11.576;2024-01-15T00:07:53;93734.16;;;-0.73
12662;BMP180;3200;48.204;11.576;2024-01-15T00:10:19;93739.38;;;-0.73
12662;BMP180;3200;48.204;11.576;2024-01-15T00:12:45;93753.34;;;-0.81
12662;BMP180;3200;48.204;11.576;2024-01-15T00:15:11;93677.53;;;-1.07
12662;BMP180;3200;48.204;11.576;2024-01-15T00:17:37;93718.16;;;-0.91
12662;BMP180;3200;48.204;11.576;2024-01-15T00:20:04;93732.69;;;-0.82
12662;BMP180;3200;48.204;11.576;2024-01-15T00:22:30;93794.19;;;-0.45
12662;BMP180;3200;48.204;11.576;2024-01-15T00:24:56;93757.19;;;-0.77
12662;BMP180;3200;48.204;11.576;2024-01-15T00:27:22;93714.25;;;-1.02
12662;BMP180;3200;48.204;11.576;2024-01-15T00:29:49;93697.06;;;-1.18
12662;BMP180;3200;48.204;11.576;2024-01-15T00:32:20;93769.00;;;-0.81
12662;BMP180;3200;48.204;11.576;2024-01-15T00:34:46;93725.75;;;-0.96
12662;BMP180;3200;48.204;11.576;2024-01-15T00:37:15;93785.97;;;-0.70
12662;BMP180;3200;48.204;11.576;2024-01-15T00:39:41;93712.78;;;-1.11
12662;BMP180;3200;48.204;11.576;2024-01-15T00:42:07;93708.44;;;-1.25
12662;BMP180;3200;48.204;11.576;2024-01-15T00:44:36;93775.72;;;-0.93
12662;BMP180;3200;48.204;11.576;2024-01-15T00:47:02;93786.63;;;-0.83
12662;BMP180;3200;48.204;11.576;2024-01-15T00:49:28;93778.44;;;-1.01
12662;BMP180;3200;48.204;11.576;2024-01-15T00:51:54;93684.91;;;-1.53
12662;BMP180;3200;48.204;11.576;2024-01-15T00:54:20;93723.81;;;-1.31
12662;BMP180;3200;48.204;11.576;2024-01-15T00:56:46;93748.28;;;-1.10
12662;BMP180;3200;48.204;11.576;2024-01-15T00:59:14;93743.06;;;-1.10
12662;BMP180;3200;48.204;11.576;2024-01-15T01:01:43;93718.88;;;-1.25
12662;BMP180;3200;48.204;11.576;2024-01-15T01:04:12;93732.91;;;-1.26
12662;BMP180;3200;48.204;11.576;2024-01-15T01:06:38;93769.00;;;-1.02
12662;BMP180;3200;48.204;11.576;2024-01-15T01:09:04;93837.31;;;-0.70
12662;BMP180;3200;48.204;11.576;2024-01-15T01:11:30;93804.00;;;-0.90
12662;BMP180;3200;48.204;11.576;2024-01-15T01:14:02;93725.38;;;-1.36
12662;BMP180;3200;48.204;11.576;2024-01-15T01:16:33;93722.22;;;-1.32
12662;BMP180;3200;48.204;11.576;2024-01-15T01:19:05;93760.00;;;-1.21
12662;BMP180;3200;48.204;11.576;2024-01-15T01:21:33;93842.75;;;-0.87
12662;BMP180;3200;48.204;11.576;2024-01-15T01:23:59;93722.44;;;-1.69
12662;BMP180;3200;48.204;11.576;2024-01-15T01:26:29;93766.28;;;-1.51
12662;BMP180;3200;48.204;11.576;2024-01-15T01:29:13;93827.72;;;-1.42
12662;BMP180;3200;48.204;11.576;2024-01-15T01:31:45;93775.31;;;-1.69
12662;BMP180;3200;48.204;11.576;2024-01-15T01:34:15;93766.97;;;-1.94
12662;BMP180;3200;48.204;11.576;2024-01-15T01:36:44;93753.50;;;-2.12
12662;BMP180;3200;48.204;11.576;2024-01-15T01:39:10;93808.28;;;-1.91
12662;BMP180;3200;48.204;11.576;2024-01-15T01:41:38;93851.09;;;-1.64
12662;BMP180;3200;48.204;11.576;2024-01-15T01:44:04;93794.88;;;-2.02
12662;BMP180;3200;48.204;11.576;2024-01-15T01:46:30;93835.66;;;-1.95
12662;BMP180;3200;48.204;11.576;2024-01-15T01:48:57;93776.03;;;-2.34
12662;BMP180;3200;48.204;11.576;2024-01-15T01:51:25;93807.88;;;-2.17
12662;BMP180;3200;48.204;11.576;2024-01-15T01:53:51;93815.09;;;-2.19
12662;BMP180;3200;48.204;11.576;2024-01-15T01:56:18;93727.97;;;-2.91
12662;BMP180;3200;48.204;11.576;2024-01-15T01:58:45;93794.50;;;-2.44
12662;BMP180;3200;48.204;11.576;2024-01-15T02:01:13;93848.97;;;-2.27
12662;BMP180;3200;48.204;11.576;2024-01-15T02:03:40;93842.97;;;-2.28
12662;BMP180;3200;48.204;11.576;2024-01-15T02:06:06;93863.88;;;-2.21
12662;BMP180;3200;48.204;11.576;2024-01-15T02:08:33;93804.53;;;-2.41
12662;BMP180;3200;48.204;11.576;2024-01-15T02:10:58;93830.81;;;-2.36
12662;BMP180;3200;48.204;11.576;2024-01-15T02:13:24;93864.44;;;-2.11
12662;BMP180;3200;48.204;11.576;2024-01-15T02:15:50;93848.25;;;-2.21
12662;BMP180;3200;48.204;11.576;2024-01-15T02:18:16;93828.34;;;-2.29
12662;BMP180;3200;48.204;11.576;2024-01-15T02:20:42;93838.22;;;-2.24
12662;BMP180;3200;48.204;11.576;2024-01-15T02:23:13;93839.66;;;-2.22
12662;BMP180;3200;48.204;11.576;2024-01-15T02:25:45;93864.28;;;-1.95
12662;BMP180;3200;48.204;11.576;2024-01-15T02:28:16;93869.03;;;-1.98
12662;BMP180;3200;48.204;11.576;2024-01-15T02:30:44;93742.00;;;-2.77
12662;BMP180;3200;48.204;11.576;2024-01-15T02:33:11;93873.28;;;-1.83
12662;BMP180;3200;48.204;11.576;2024-01-15T02:35:37;93845.97;;;-2.01
12662;BMP180;3200;48.204;11.576;2024-01-15T02:38:07;93808.41;;;-2.37
12662;BMP180;3200;48.204;11.576;2024-01-15T02:40:34;93832.66;;;-2.21
12662;BMP180;3200;48.204;11.576;2024-01-15T02:43:00;93883.69;;;-1.83
12662;BMP180;3200;48.204;11.576;2024-01-15T02:45:26;93834.84;;;-2.10
12662;BMP180;3200;48.204;11.576;2024-01-15T02:47:52;93891.50;;;-1.68
12662;BMP180;3200;48.204;11.576;2024-01-15T02:50:18;93821.59;;;-2.38
12662;BMP180;3200;48.204;11.576;2024-01-15T02:52:44;93822.75;;;-2.41
12662;BMP180;3200;48.204;11.576;2024-01-15T02:55:10;93857.00;;;-1.99
12662;BMP180;3200;48.204;11.576;2024-01-15T02:57:36;93849.25;;;-2.08
12662;BMP180;3200;48.204;11.576;2024-01-15T03:00:02;93830.69;;;-2.19
12662;BMP180;3200;48.204;11.576;2024-01-15T03:02:29;93875.22;;;-1.85
12662;BMP180;3200;48.204;11.576;2024-01-15T03:04:57;93823.44;;;-2.09
12662;BMP180;3200;48.204;11.576;2024-01-15T03:07:23;93843.91;;;-1.91
12662;BMP180;3200;48.204;11.576;2024-01-15T03:09:49;93820.09;;;-2.03
12662;BMP180;3200;48.204;11.576;2024-01-15T03:12:15;93786.66;;;-2.21
12662;BMP180;3200;48.204;11.576;2024-01-15T03:14:42;93798.13;;;-2.00
12662;BMP180;3200;48.204;11.576;2024-01-15T03:17:07;93749.91;;;-2.41
12662;BMP180;3200;48.204;11.576;2024-01-15T03:19:35;93839.13;;;-2.02
12662;BMP180;3200;48.204;11.576;2024-01-15T03:22:01;93807.09;;;-2.03
12662;BMP180;3200;48.204;11.576;2024-01-15T03:24:30;93824.78;;;-1.84
12662;BMP180;3200;48.204;11.576;2024-01-15T03:26:56;93777.66;;;-2.18
12662;BMP180;3200;48.204;11.576;2024-01-15T03:29:26;93860.25;;;-1.68
12662;BMP180;3200;48.204;11.576;2024-01-15T03:31:53;93807.09;;;-2.18
12662;BMP180;3200;48.204;11.576;2024-01-15T03:34:19;93820.75;;;-2.01
12662;BMP180;3200;48.204;11.576;2024-01-15T03:36:45;93860.88;;;-1.81
12662;BMP180;3200;48.204;11.576;2024-01-15T03:39:11;93871.03;;;-1.71
12662;BMP180;3200;48.204;11.576;2024-01-15T03:41:37;93874.63;;;-1.72
12662;BMP180;3200;48.204;11.576;2024-01-15T03:44:03;93827.03;;;-2.10
12662;BMP180;3200;48.204;11.576;2024-01-15T03:46:28;93815.00;;;-2.11
12662;BMP180;3200;48.204;11.576;2024-01-15T03:48:54;93798.75;;;-2.13
12662;BMP180;3200;48.204;11.576;2024-01-15T03:51:20;93823.34;;;-2.01
12662;BMP180;3200;48.204;11.576;2024-01-15T03:53:46;93881.97;;;-1.61
12662;BMP180;3200;48.204;11.576;2024-01-15T03:56:12;93817.88;;;-1.91
12662;BMP180;3200;48.204;11.576;2024-01-15T03:58:38;93786.66;;;-2.21
12662;BMP180;3200;48.204;11.576;2024-01-15T04:01:09;93867.53;;;-1.63
12662;BMP180;3200;48.204;11.576;2024-01-15T04:03:35;93877.41;;;-1.73
12662;BMP180;3200;48.204;11.576;2024-01-15T04:06:01;93871.28;;;-1.51
12662;BMP180;3200;48.204;11.576;2024-01-15T04:08:27;93813.56;;;-1.84
12662;BMP180;3200;48.204;11.576;2024-01-15T04:10:53;93775.50;;;-2.15
12662;BMP180;3200;48.204;11.576;2024-01-15T04:13:19;93837.81;;;-1.69
12662;BMP180;3200;48.204;11.576;2024-01-15T04:15:45;93822.47;;;-1.78
12662;BMP180;3200;48.204;11.576;2024-01-15T04:18:10;93798.38;;;-1.81
12662;BMP180;3200;48.204;11.576;2024-01-15T04:20:36;93770.31;;;-2.00
12662;BMP180;3200;48.204;11.576;2024-01-15T04:23:02;93840.28;;;-1.46
12662;BMP180;3200;48.204;11.576;2024-01-15T04:25:28;93788.69;;;-1.87
12662;BMP180;3200;48.204;11.576;2024-01-15T04:27:54;93815.44;;;-1.63
12662;BMP180;3200;48.204;11.576;2024-01-15T04:30:20;93823.69;;;-1.74
12662;BMP180;3200;48.204;11.576;2024-01-15T04:32:45;93780.63;;;-1.92
12662;BMP180;3200;48.204;11.576;2024-01-15T04:35:11;93812.56;;;-1.68
12662;BMP180;3200;48.204;11.576;2024-01-15T04:37:39;93804.84;;;-1.76
12662;BMP180;3200;48.204;11.576;2024-01-15T04:40:06;93850.09;;;-1.48
12662;BMP180;3200;48.204;11.576;2024-01-15T04:42:32;93841.91;;;-1.45
12662;BMP180;3200;48.204;11.576;2024-01-15T04:44:59;93820.28;;;-1.60
12662;BMP180;3200;48.204;11.576;2024-01-15T04:47:25;93812.19;;;-1.65
12662;BMP180;3200;48.204;11.576;2024-01-15T04:49:51;93829.25;;;-1.48
12662;BMP180;3200;48.204;11.576;2024-01-15T04:52:17;93841.28;;;-1.47
12662;BMP180;3200;48.204;11.576;2024-01-15T04:54:43;93852.69;;;-1.48
12662;BMP180;3200;48.204;11.576;2024-01-15T04:57:08;93808.44;;;-1.77
12662;BMP180;3200;48.204;11.576;2024-01-15T04:59:34;93794.38;;;-1.83
12662;BMP180;3200;48.204;11.576;2024-01-15T05:02:00;93819.31;;;-1.74
12662;BMP180;3200;48.204;11.576;2024-01-15T05:04:26;93789.16;;;-1.83
12662;BMP180;3200;48.204;11.576;2024-01-15T05:06:52;93807.19;;;-1.82
12662;BMP180;3200;48.204;11.576;2024-01-15T05:09:18;93841.09;;;-1.60
12662;BMP180;3200;48.204;11.576;2024-01-15T05:11:44;93839.41;;;-1.53
12662;BMP180;3200;48.204;11.576;2024-01-15T05:14:10;93759.34;;;-1.95
12662;BMP180;3200;48.204;11.576;2024-01-15T05:16:39;93737.47;;;-2.01
12662;BMP180;3200;48.204;11.576;2024-01-15T05:19:04;93766.25;;;-1.88
12662;BMP180;3200;48.204;11.576;2024-01-15T05:21:30;93830.69;;;-1.60
12662;BMP180;3200;48.204;11.576;2024-01-15T05:23:56;93784.84;;;-1.91
12662;BMP180;3200;48.204;11.576;2024-01-15T05:26:22;93805.03;;;-1.63
12662;BMP180;3200;48.204;11.576;2024-01-15T05:28:48;93777.31;;;-2.00
12662;BMP180;3200;48.204;11.576;2024-01-15T05:31:14;93874.69;;;-1.36
12662;BMP180;3200;48.204;11.576;2024-01-15T05:33:39;93800.53;;;-1.84
12662;BMP180;3200;48.204;11.576;2024-01-15T05:36:06;93874.25;;;-1.39
12662;BMP180;3200;48.204;11.576;2024-01-15T05:38:32;93844.81;;;-1.55
12662;BMP180;3200;48.204;11.576;2024-01-15T05:40:58;93790.31;;;-1.86
12662;BMP180;3200;48.204;11.576;2024-01-15T05:43:23;93842.00;;;-1.53
12662;BMP180;3200;48.204;11.576;2024-01-15T05:45:49;93843.81;;;-1.53
12662;BMP180;3200;48.204;11.576;2024-01-15T05:48:15;93859.34;;;-1.45
12662;BMP180;3200;48.204;11.576;2024-01-15T05:50:41;93797.38;;;-1.80
12662;BMP180;3200;48.204;11.576;2024-01-15T05:53:07;93806.19;;;-1.95
12662;BMP180;3200;48.204;11.576;2024-01-15T05:55:36;93817.06;;;-1.77
12662;BMP180;3200;48.204;11.576;2024-01-15T05:58:01;93861.06;;;-1.52
12662;BMP180;3200;48.204;11.576;2024-01-15T06:00:27;93782.41;;;-2.07
12662;BMP180;3200;48.204;11.576;2024-01-15T06:02:53;93814.81;;;-1.80
12662;BMP180;3200;48.204;11.576;2024-01-15T06:05:19;93864.47;;;-1.52
12662;BMP180;3200;48.204;11.576;2024-01-15T06:07:45;93844.34;;;-1.58
12662;BMP180;3200;48.204;11.576;2024-01-15T06:10:10;93818.47;;;-1.74
12662;BMP180;3200;48.204;11.576;2024-01-15T06:12:36;93785.03;;;-1.92
12662;BMP180;3200;48.204;11.576;2024-01-15T06:15:02;93861.25;;;-1.54
12662;BMP180;3200;48.204;11.576;2024-01-15T06:17:28;93792.31;;;-1.88
12662;BMP180;3200;48.204;11.576;2024-01-15T06:19:54;93779.53;;;-1.83
12662;BMP180;3200;48.204;11.576;2024-01-15T06:22:20;93838.59;;;-1.53
12662;BMP180;3200;48.204;11.576;2024-01-15T06:24:46;93856.47;;;-1.50
12662;BMP180;3200;48.204;11.576;2024-01-15T06:27:11;93868.59;;;-1.43
12662;BMP180;3200;48.204;11.576;2024-01-15T06:29:38;93813.28;;;-1.74
12662;BMP180;3200;48.204;11.576;2024-01-15T06:32:04;93859.44;;;-1.39
12662;BMP180;3200;48.204;11.576;2024-01-15T06:34:30;93721.75;;;-2.22
12662;BMP180;3200;48.204;11.576;2024-01-15T06:36:56;93843.28;;;-1.49
12662;BMP180;3200;48.204;11.576;2024-01-15T06:39:22;93821.16;;;-1.53
12662;BMP180;3200;48.204;11.576;2024-01-15T06:41:48;93769.41;;;-1.92
12662;BMP180;3200;48.204;11.576;2024-01-15T06:44:13;93784.94;;;-1.69
12662;BMP180;3200;48.204;11.576;2024-01-15T06:46:43;93773.88;;;-1.86
12662;BMP180;3200;48.204;11.576;2024-01-15T06:49:10;93834.19;;;-1.53
12662;BMP180;3200;48.204;11.576;2024-01-15T06:51:36;93787.88;;;-1.72
12662;BMP180;3200;48.204;11.576;2024-01-15T06:54:02;93838.94;;;-1.42
12662;BMP180;3200;48.204;11.576;2024-01-15T06:56:28;93755.31;;;-1.98
12662;BMP180;3200;48.204;11.576;2024-01-15T06:58:53;93759.59;;;-1.75
12662;BMP180;3200;48.204;11.576;2024-01-15T07:01:19;93806.03;;;-1.64
12662;BMP180;3200;48.204;11.576;2024-01-15T07:03:45;93787.41;;;-1.61
12662;BMP180;3200;48.204;11.576;2024-01-15T07:06:12;93784.63;;;-1.60
12662;BMP180;3200;48.204;11.576;2024-01-15T07:08:39;93807.53;;;-1.55
12662;BMP180;3200;48.204;11.576;2024-01-15T07:11:06;93849.16;;;-1.25
12662;BMP180;3200;48.204;11.576;2024-01-15T07:13:33;93839.34;;;-1.23
12662;BMP180;3200;48.204;11.576;2024-01-15T07:15:59;93821.03;;;-1.30
12662;BMP180;3200;48.204;11.576;2024-01-15T07:18:25;93770.91;;;-1.68
12662;BMP180;3200;48.204;11.576;2024-01-15T07:20:51;93797.63;;;-1.45
12662;BMP180;3200;48.204;11.576;2024-01-15T07:23:17;93780.31;;;-1.52
12662;BMP180;3200;48.204;11.576;2024-01-15T07:25:43;93828.38;;;-1.19
12662;BMP180;3200;48.204;11.576;2024-01-15T07:28:09;93817.88;;;-1.25
12662;BMP180;3200;48.204;11.576;2024-01-15T07:30:35;93804.41;;;-1.29
12662;BMP180;3200;48.204;11.576;2024-01-15T07:33:04;93811.94;;;-1.19
12662;BMP180;3200;48.204;11.576;2024-01-15T07:35:30;93830.69;;;-1.09
12662;BMP180;3200;48.204;11.576;2024-01-15T07:37:56;93794.53;;;-1.34
12662;BMP180;3200;48.204;11.576;2024-01-15T07:40:22;93847.31;;;-1.10
12662;BMP180;3200;48.204;11.576;2024-01-15T07:42:48;93833.69;;;-1.12
12662;BMP180;3200;48.204;11.576;2024-01-15T07:45:14;93759.97;;;-1.42
12662;BMP180;3200;48.204;11.576;2024-01-15T07:47:40;93835.66;;;-1.14
12662;BMP180;3200;48.204;11.576;2024-01-15T07:50:06;93786.53;;;-1.32
12662;BMP180;3200;48.204;11.576;2024-01-15T07:52:32;93800.66;;;-1.26
12662;BMP180;3200;48.204;11.576;2024-01-15T07:54:58;93797.91;;;-1.18
12662;BMP180;3200;48.204;11.576;2024-01-15T07:57:29;93824.38;;;-1.00
12662;BMP180;3200;48.204;11.576;2024-01-15T07:59:54;93727.25;;;-1.66
12662;BMP180;3200;48.204;11.576;2024-01-15T08:02:20;93746.50;;;-1.46
12662;BMP180;3200;48.204;11.576;2024-01-15T08:04:47;93805.97;;;-1.13
12662;BMP180;3200;48.204;11.576;2024-01-15T08:07:13;93788.25;;;-1.03
12662;BMP180;3200;48.204;11.576;2024-01-15T08:09:39;93725.53;;;-1.38
12662;BMP180;3200;48.204;11.576;2024-01-15T08:12:05;93768.00;;;-1.01
12662;BMP180;3200;48.204;11.576;2024-01-15T08:14:32;93720.47;;;-1.24
12662;BMP180;3200;48.204;11.576;2024-01-15T08:16:57;93807.00;;;-0.93
12662;BMP180;3200;48.204;11.576;2024-01-15T08:19:23;93703.22;;;-1.47
12662;BMP180;3200;48.204;11.576;2024-01-15T08:21:49;93811.72;;;-0.82
12662;BMP180;3200;48.204;11.576;2024-01-15T08:24:16;93749.88;;;-1.09
12662;BMP180;3200;48.204;11.576;2024-01-15T08:26:42;93804.78;;;-0.74
12662;BMP180;3200;48.204;11.576;2024-01-15T08:29:08;93763.41;;;-0.99
12662;BMP180;3200;48.204;11.576;2024-01-15T08:31:34;93768.69;;;-0.92
12662;BMP180;3200;48.204;11.576;2024-01-15T08:34:00;93726.03;;;-1.27
12662;BMP180;3200;48.204;11.576;2024-01-15T08:36:27;93714.81;;;-1.49
12662;BMP180;3200;48.204;11.576;2024-01-15T08:38:55;93728.75;;;-1.57
12662;BMP180;3200;48.204;11.576;2024-01-15T08:41:21;93786.50;;;-0.96
12662;BMP180;3200;48.204;11.576;2024-01-15T08:43:46;93745.47;;;-1.30
12662;BMP180;3200;48.204;11.576;2024-01-15T08:46:13;93771.97;;;-1.26
12662;BMP180;3200;48.204;11.576;2024-01-15T08:48:38;93756.84;;;-1.16
12662;BMP180;3200;48.204;11.576;2024-01-15T08:51:05;93755.59;;;-1.20
12662;BMP180;3200;48.204;11.576;2024-01-15T08:53:31;93755.09;;;-1.09
12662;BMP180;3200;48.204;11.576;2024-01-15T08:55:58;93823.31;;;-0.63
12662;BMP180;3200;48.204;11.576;2024-01-15T08:58:24;93774.28;;;-0.74
12662;BMP180;3200;48.204;11.576;2024-01-15T09:00:51;93817.31;;;-0.63
12662;BMP180;3200;48.204;11.576;2024-01-15T09:03:17;93805.50;;;-0.59
12662;BMP180;3200;48.204;11.576;2024-01-15T09:05:43;93736.97;;;-0.96
12662;BMP180;3200;48.204;11.576;2024-01-15T09:08:09;93791.09;;;-0.77
12662;BMP180;3200;48.204;11.576;2024-01-15T09:10:35;93739.09;;;-1.06
12662;BMP180;3200;48.204;11.576;2024-01-15T09:13:01;93758.38;;;-1.00
12662;BMP180;3200;48.204;11.576;2024-01-15T09:15:29;93769.56;;;-0.85
12662;BMP180;3200;48.204;11.576;2024-01-15T09:17:55;93752.78;;;-0.76
12662;BMP180;3200;48.204;11.576;2024-01-15T09:20:23;93797.25;;;-0.63
12662;BMP180;3200;48.204;11.576;2024-01-15T09:22:49;93741.31;;;-0.82
12662;BMP180;3200;48.204;11.576;2024-01-15T09:25:15;93754.97;;;-0.80
12662;BMP180;3200;48.204;11.576;2024-01-15T09:27:40;93797.72;;;-0.53
12662;BMP180;3200;48.204;11.576;2024-01-15T09:30:07;93804.25;;;-0.42
12662;BMP180;3200;48.204;11.576;2024-01-15T09:32:33;93724.81;;;-0.89
12662;BMP180;3200;48.204;11.576;2024-01-15T09:35:00;93790.09;;;-0.54
12662;BMP180;3200;48.204;11.576;2024-01-15T09:37:25;93746.06;;;-0.64
12662;BMP180;3200;48.204;11.576;2024-01-15T09:39:51;93699.56;;;-0.82
12662;BMP180;3200;48.204;11.576;2024-01-15T09:42:18;93693.69;;;-0.90
12662;BMP180;3200;48.204;11.576;2024-01-15T09:44:45;93731.81;;;-0.61
12662;BMP180;3200;48.204;11.576;2024-01-15T09:47:12;93731.78;;;-0.68
12662;BMP180;3200;48.204;11.576;2024-01-15T09:49:39;93732.44;;;-0.87
12662;BMP180;3200;48.204;11.576;2024-01-15T09:52:07;93830.03;;;-0.04
12662;BMP180;3200;48.204;11.576;2024-01-15T09:54:34;93691.88;;;-0.90
12662;BMP180;3200;48.204;11.576;2024-01-15T09:57:01;93742.69;;;-0.58
12662;BMP180;3200;48.204;11.576;2024-01-15T09:59:28;93748.34;;;-0.54
12662;BMP180;3200;48.204;11.576;2024-01-15T10:01:55;93697.06;;;-0.68
12662;BMP180;3200;48.204;11.576;2024-01-15T10:04:21;93744.56;;;-0.23
12662;BMP180;3200;48.204;11.576;2024-01-15T10:06:51;93796.09;;;-0.04
12662;BMP180;3200;48.204;11.576;2024-01-15T10:09:17;93770.38;;;-0.01
12662;BMP180;3200;48.204;11.576;2024-01-15T10:11:44;93690.63;;;-0.38
12662;BMP180;3200;48.204;11.576;2024-01-15T10:14:12;93691.81;;;-0.47
12662;BMP180;3200;48.204;11.576;2024-01-15T10:16:39;93762.00;;;0.11
12662;BMP180;3200;48.204;11.576;2024-01-15T10:19:05;93670.75;;;-0.39
12662;BMP180;3200;48.204;11.576;2024-01-15T10:21:35;93731.84;;;0.08
12662;BMP180;3200;48.204;11.576;2024-01-15T10:24:04;93679.03;;;-0.35
12662;BMP180;3200;48.204;11.576;2024-01-15T10:26:31;93777.78;;;0.31
12662;BMP180;3200;48.204;11.576;2024-01-15T10:29:00;93761.72;;;0.34
12662;BMP180;3200;48.204;11.576;2024-01-15T10:31:27;93784.31;;;0.48
12662;BMP180;3200;48.204;11.576;2024-01-15T10:33:53;93765.31;;;0.33
12662;BMP180;3200;48.204;11.576;2024-01-15T10:36:19;93749.19;;;0.22
12662;BMP180;3200;48.204;11.576;2024-01-15T10:38:46;93769.06;;;0.58
12662;BMP180;3200;48.204;11.576;2024-01-15T10:41:12;93762.59;;;0.54
12662;BMP180;3200;48.204;11.576;2024-01-15T10:43:39;93768.84;;;0.60
12662;BMP180;3200;48.204;11.576;2024-01-15T10:46:07;93769.63;;;0.54
12662;BMP180;3200;48.204;11.576;2024-01-15T10:48:34;93695.13;;;0.16
12662;BMP180;3200;48.204;11.576;2024-01-15T10:51:02;93761.84;;;0.67
12662;BMP180;3200;48.204;11.576;2024-01-15T10:53:40;93759.63;;;0.70
12662;BMP180;3200;48.204;11.576;2024-01-15T10:56:07;93756.84;;;0.79
12662;BMP180;3200;48.204;11.576;2024-01-15T10:58:34;93742.19;;;0.91
12662;BMP180;3200;48.204;11.576;2024-01-15T11:01:02;93725.03;;;0.68
12662;BMP180;3200;48.204;11.576;2024-01-15T11:03:28;93723.66;;;0.79
12662;BMP180;3200;48.204;11.576;2024-01-15T11:05:54;93691.19;;;0.47
12662;BMP180;3200;48.204;11.576;2024-01-15T11:08:20;93721.03;;;0.72
12662;BMP180;3200;48.204;11.576;2024-01-15T11:10:50;93719.59;;;0.63
12662;BMP180;3200;48.204;11.576;2024-01-15T11:16:03;93733.72;;;0.89
12662;BMP180;3200;48.204;11.576;2024-01-15T11:19:02;93737.00;;;1.11
12662;BMP180;3200;48.204;11.576;2024-01-15T11:21:29;93735.19;;;1.18
12662;BMP180;3200;48.204;11.576;2024-01-15T11:24:01;93731.75;;;1.04
12662;BMP180;3200;48.204;11.576;2024-01-15T11:26:38;93703.94;;;0.76
12662;BMP180;3200;48.204;11.576;2024-01-15T11:29:29;93646.97;;;0.45
12662;BMP180;3200;48.204;11.576;2024-01-15T11:34:57;93714.88;;;1.13
12662;BMP180;3200;48.204;11.576;2024-01-15T11:37:25;93711.41;;;0.93
12662;BMP180;3200;48.204;11.576;2024-01-15T11:40:00;93730.53;;;1.07
12662;BMP180;3200;48.204;11.576;2024-01-15T11:42:27;93708.00;;;0.92
12662;BMP180;3200;48.204;11.576;2024-01-15T11:44:53;93728.50;;;0.82
12662;BMP180;3200;48.204;11.576;2024-01-15T11:50:21;93708.47;;;0.41
12662;BMP180;3200;48.204;11.576;2024-01-15T11:53:01;93729.81;;;0.45
12662;BMP180;3200;48.204;11.576;2024-01-15T11:55:34;93694.19;;;0.31
12662;BMP180;3200;48.204;11.576;2024-01-15T11:58:02;93715.72;;;0.39
12662;BMP180;3200;48.204;11.576;2024-01-15T12:00:29;93684.53;;;0.24
12662;BMP180;3200;48.204;11.576;2024-01-15T12:02:55;93660.34;;;0.09
12662;BMP180;3200;48.204;11.576;2024-01-15T12:05:22;93591.88;;;-0.34
12662;BMP180;3200;48.204;11.576;2024-01-15T12:07:49;93648.88;;;0.04
12662;BMP180;3200;48.204;11.576;2024-01-15T12:10:20;93578.56;;;-0.53
12662;BMP180;3200;48.204;11.576;2024-01-15T12:15:18;93691.56;;;0.37
12662;BMP180;3200;48.204;11.576;2024-01-15T12:17:45;93670.78;;;0.09
12662;BMP180;3200;48.204;11.576;2024-01-15T12:20:11;93670.03;;;0.15
12662;BMP180;3200;48.204;11.576;2024-01-15T12:22:38;93657.56;;;0.17
12662;BMP180;3200;48.204;11.576;2024-01-15T12:25:05;93672.69;;;0.35
12662;BMP180;3200;48.204;11.576;2024-01-15T12:27:31;93542.69;;;-0.44
12662;BMP180;3200;48.204;11.576;2024-01-15T12:29:58;93575.44;;;-0.35
12662;BMP180;3200;48.204;11.576;2024-01-15T12:32:25;93645.28;;;0.11
12662;BMP180;3200;48.204;11.576;2024-01-15T12:34:51;93588.63;;;-0.43
12662;BMP180;3200;48.204;11.576;2024-01-15T12:37:22;93601.56;;;-0.28
12662;BMP180;3200;48.204;11.576;2024-01-15T12:39:49;93602.16;;;-0.33
12662;BMP180;3200;48.204;11.576;2024-01-15T12:42:16;93601.59;;;-0.21
12662;BMP180;3200;48.204;11.576;2024-01-15T12:44:44;93615.47;;;-0.14
12662;BMP180;3200;48.204;11.576;2024-01-15T12:47:10;93645.44;;;0.03
12662;BMP180;3200;48.204;11.576;2024-01-15T12:49:38;93614.44;;;-0.20
12662;BMP180;3200;48.204;11.576;2024-01-15T12:52:04;93655.94;;;0.10
12662;BMP180;3200;48.204;11.576;2024-01-15T12:54:29;93587.47;;;-0.34
12662;BMP180;3200;48.204;11.576;2024-01-15T12:56:55;93546.88;;;-0.56
12662;BMP180;3200;48.204;11.576;2024-01-15T12:59:21;93562.22;;;-0.20
12662;BMP180;3200;48.204;11.576;2024-01-15T13:01:47;93637.13;;;0.41
12662;BMP180;3200;48.204;11.576;2024-01-15T13:04:25;93628.13;;;0.63
12662;BMP180;3200;48.204;11.576;2024-01-15T13:06:51;93618.47;;;0.57
12662;BMP180;3200;48.204;11.576;2024-01-15T13:09:18;93601.78;;;0.58
12662;BMP180;3200;48.204;11.576;2024-01-15T13:11:47;93572.00;;;0.66
12662;BMP180;3200;48.204;11.576;2024-01-15T13:14:13;93587.69;;;0.92
12662;BMP180;3200;48.204;11.576;2024-01-15T13:16:40;93598.16;;;1.06
12662;BMP180;3200;48.204;11.576;2024-01-15T13:19:08;93543.25;;;0.59
12662;BMP180;3200;48.204;11.576;2024-01-15T13:21:42;93614.84;;;1.11
12662;BMP180;3200;48.204;11.576;2024-01-15T13:24:08;93586.06;;;0.98
12662;BMP180;3200;48.204;11.576;2024-01-15T13:26:35;93664.91;;;1.54
12662;BMP180;3200;48.204;11.576;2024-01-15T13:29:04;93546.47;;;0.74
12662;BMP180;3200;48.204;11.576;2024-01-15T13:31:31;93604.59;;;0.90
12662;BMP180;3200;48.204;11.576;2024-01-15T13:33:57;93652.47;;;1.30
12662;BMP180;3200;48.204;11.576;2024-01-15T13:36:24;93676.81;;;1.31
12662;BMP180;3200;48.204;11.576;2024-01-15T13:38:51;93670.78;;;1.37
12662;BMP180;3200;48.204;11.576;2024-01-15T13:41:18;93605.41;;;0.97
12662;BMP180;3200;48.204;11.576;2024-01-15T13:43:54;93613.84;;;0.99
12662;BMP180;3200;48.204;11.576;2024-01-15T13:46:24;93619.66;;;1.08
12662;BMP180;3200;48.204;11.576;2024-01-15T13:48:50;93673.41;;;1.37
12662;BMP180;3200;48.204;11.576;2024-01-15T13:51:19;93585.28;;;0.84
12662;BMP180;3200;48.204;11.576;2024-01-15T13:53:45;93676.63;;;1.19
12662;BMP180;3200;48.204;11.576;2024-01-15T13:56:11;93595.56;;;0.86
12662;BMP180;3200;48.204;11.576;2024-01-15T13:58:38;93597.16;;;0.80
12662;BMP180;3200;48.204;11.576;2024-01-15T14:01:04;93631.13;;;1.20
12662;BMP180;3200;48.204;11.576;2024-01-15T14:03:32;93671.56;;;1.31
12662;BMP180;3200;48.204;11.576;2024-01-15T14:05:58;93654.28;;;1.10
12662;BMP180;3200;48.204;11.576;2024-01-15T14:08:24;93626.94;;;0.86
12662;BMP180;3200;48.204;11.576;2024-01-15T14:10:51;93678.44;;;1.05
12662;BMP180;3200;48.204;11.576;2024-01-15T14:13:17;93650.47;;;0.99
12662;BMP180;3200;48.204;11.576;2024-01-15T14:15:43;93666.34;;;1.11
12662;BMP180;3200;48.204;11.576;2024-01-15T14:18:09;93688.91;;;1.18
12662;BMP180;3200;48.204;11.576;2024-01-15T14:20:35;93668.56;;;0.94